sensor_id;sensor_type;location;lat;lon;timestamp;P1;durP1;ratioP1;P2;durP2;ratioP2
22468;SDS011;11401;50.792;4.352;2023-04-10T00:00:30;8.52;;;6.68;;
22468;SDS011;11401;50.792;4.352;2023-04-10T00:02:58;6.32;;;5.70;;
22468;SDS011;11401;50.792;4.352;2023-04-10T00:05:31;8.25;;;6.15;;
22468;SDS011;11401;50.792;4.352;2023-04-10T00:07:58;6.05;;;5.53;;
22468;SDS011;11401;50.792;4.352;2023-04-10T00:10:26;10.27;;;6.45;;
22468;SDS011;11401;50.792;4.352;2023-04-10T00:12:56;9.48;;;6.40;;
22468;SDS011;11401;50.792;4.352;2023-04-10T00:15:23;8.80;;;6.15;;
22468;SDS011;11401;50.792;4.352;2023-04-10T00:17:50;6.47;;;5.80;;
22468;SDS011;11401;50.792;4.352;2023-04-10T00:20:21;10.32;;;6.22;;
22468;SDS011;11401;50.792;4.352;2023-04-10T00:22:49;8.93;;;5.63;;
22468;SDS011;11401;50.792;4.352;2023-04-10T00:25:16;6.20;;;5.60;;
22468;SDS011;11401;50.792;4.352;2023-04-10T00:27:43;6.45;;;5.45;;
22468;SDS011;11401;50.792;4.352;2023-04-10T00:30:10;5.93;;;5.32;;
22468;SDS011;11401;50.792;4.352;2023-04-10T00:32:37;10.23;;;5.30;;
22468;SDS011;11401;50.792;4.352;2023-04-10T00:35:05;7.07;;;5.43;;
22468;SDS011;11401;50.792;4.352;2023-04-10T00:37:33;9.43;;;5.60;;
22468;SDS011;11401;50.792;4.352;2023-04-10T00:40:01;8.75;;;5.82;;
22468;SDS011;11401;50.792;4.352;2023-04-10T00:42:28;6.10;;;5.50;;
22468;SDS011;11401;50.792;4.352;2023-04-10T00:44:55;6.55;;;5.85;;
22468;SDS011;11401;50.792;4.352;2023-04-10T00:47:22;6.70;;;5.35;;
22468;SDS011;11401;50.792;4.352;2023-04-10T00:49:49;6.00;;;5.40;;
22468;SDS011;11401;50.792;4.352;2023-04-10T00:52:17;6.20;;;5.30;;
22468;SDS011;11401;50.792;4.352;2023-04-10T00:54:45;6.22;;;5.63;;
22468;SDS011;11401;50.792;4.352;2023-04-10T00:57:12;6.50;;;5.88;;
22468;SDS011;11401;50.792;4.352;2023-04-10T00:59:40;6.13;;;5.53;;
22468;SDS011;11401;50.792;4.352;2023-04-10T01:02:08;5.70;;;5.15;;
22468;SDS011;11401;50.792;4.352;2023-04-10T01:04:38;6.22;;;4.97;;
22468;SDS011;11401;50.792;4.352;2023-04-10T01:10:12;6.70;;;6.05;;
22468;SDS011;11401;50.792;4.352;2023-04-10T01:12:49;7.63;;;6.35;;
22468;SDS011;11401;50.792;4.352;2023-04-10T01:15:40;7.15;;;5.70;;
22468;SDS011;11401;50.792;4.352;2023-04-10T01:20:57;6.45;;;5.85;;
22468;SDS011;11401;50.792;4.352;2023-04-10T01:23:38;7.35;;;5.35;;
22468;SDS011;11401;50.792;4.352;2023-04-10T01:26:12;5.97;;;5.38;;
22468;SDS011;11401;50.792;4.352;2023-04-10T01:29:00;6.88;;;5.43;;
22468;SDS011;11401;50.792;4.352;2023-04-10T01:31:36;6.32;;;5.72;;
22468;SDS011;11401;50.792;4.352;2023-04-10T01:34:14;6.72;;;6.03;;
22468;SDS011;11401;50.792;4.352;2023-04-10T01:36:54;6.28;;;5.68;;
22468;SDS011;11401;50.792;4.352;2023-04-10T01:39:29;5.97;;;5.25;;
22468;SDS011;11401;50.792;4.352;2023-04-10T01:41:59;5.40;;;4.90;;
22468;SDS011;11401;50.792;4.352;2023-04-10T01:44:35;7.53;;;5.43;;
22468;SDS011;11401;50.792;4.352;2023-04-10T01:47:07;7.38;;;5.53;;
22468;SDS011;11401;50.792;4.352;2023-04-10T01:49:34;5.75;;;5.07;;
22468;SDS011;11401;50.792;4.352;2023-04-10T01:52:07;6.30;;;5.25;;
22468;SDS011;11401;50.792;4.352;2023-04-10T01:54:36;6.20;;;5.50;;
22468;SDS011;11401;50.792;4.352;2023-04-10T01:57:04;5.60;;;5.10;;
22468;SDS011;11401;50.792;4.352;2023-04-10T01:59:42;7.68;;;5.80;;
22468;SDS011;11401;50.792;4.352;2023-04-10T02:02:09;5.65;;;5.15;;
22468;SDS011;11401;50.792;4.352;2023-04-10T02:04:37;7.07;;;5.30;;
22468;SDS011;11401;50.792;4.352;2023-04-10T02:07:10;5.35;;;4.88;;
22468;SDS011;11401;50.792;4.352;2023-04-10T02:10:02;6.70;;;5.72;;
22468;SDS011;11401;50.792;4.352;2023-04-10T02:12:48;6.38;;;5.68;;
22468;SDS011;11401;50.792;4.352;2023-04-10T02:15:23;6.35;;;5.53;;
22468;SDS011;11401;50.792;4.352;2023-04-10T02:17:52;5.60;;;5.10;;
22468;SDS011;11401;50.792;4.352;2023-04-10T02:20:21;6.07;;;5.15;;
22468;SDS011;11401;50.792;4.352;2023-04-10T02:22:49;5.70;;;5.10;;
22468;SDS011;11401;50.792;4.352;2023-04-10T02:25:18;5.85;;;5.30;;
22468;SDS011;11401;50.792;4.352;2023-04-10T02:27:47;5.57;;;5.03;;
22468;SDS011;11401;50.792;4.352;2023-04-10T02:30:14;5.35;;;4.93;;
22468;SDS011;11401;50.792;4.352;2023-04-10T02:32:42;5.20;;;4.68;;
22468;SDS011;11401;50.792;4.352;2023-04-10T02:35:09;5.55;;;5.05;;
22468;SDS011;11401;50.792;4.352;2023-04-10T02:37:37;5.85;;;5.35;;
22468;SDS011;11401;50.792;4.352;2023-04-10T02:40:05;8.70;;;5.22;;
22468;SDS011;11401;50.792;4.352;2023-04-10T02:42:42;5.15;;;4.65;;
22468;SDS011;11401;50.792;4.352;2023-04-10T02:45:09;5.72;;;4.70;;
22468;SDS011;11401;50.792;4.352;2023-04-10T02:47:40;5.80;;;5.07;;
22468;SDS011;11401;50.792;4.352;2023-04-10T02:50:08;5.43;;;4.90;;
22468;SDS011;11401;50.792;4.352;2023-04-10T02:52:37;5.70;;;5.20;;
22468;SDS011;11401;50.792;4.352;2023-04-10T02:55:05;6.35;;;5.25;;
22468;SDS011;11401;50.792;4.352;2023-04-10T02:57:35;6.13;;;5.55;;
22468;SDS011;11401;50.792;4.352;2023-04-10T03:00:03;7.88;;;5.72;;
22468;SDS011;11401;50.792;4.352;2023-04-10T03:02:50;7.18;;;5.28;;
22468;SDS011;11401;50.792;4.352;2023-04-10T03:05:19;5.40;;;4.90;;
22468;SDS011;11401;50.792;4.352;2023-04-10T03:07:46;5.82;;;5.05;;
22468;SDS011;11401;50.792;4.352;2023-04-10T03:10:14;4.70;;;4.30;;
22468;SDS011;11401;50.792;4.352;2023-04-10T03:12:41;4.82;;;4.32;;
22468;SDS011;11401;50.792;4.352;2023-04-10T03:15:08;5.22;;;4.82;;
22468;SDS011;11401;50.792;4.352;2023-04-10T03:17:35;5.72;;;4.60;;
22468;SDS011;11401;50.792;4.352;2023-04-10T03:20:04;5.82;;;5.32;;
22468;SDS011;11401;50.792;4.352;2023-04-10T03:22:32;8.15;;;4.90;;
22468;SDS011;11401;50.792;4.352;2023-04-10T03:24:59;4.38;;;4.03;;
22468;SDS011;11401;50.792;4.352;2023-04-10T03:27:28;5.53;;;4.57;;
22468;SDS011;11401;50.792;4.352;2023-04-10T03:29:57;5.15;;;4.65;;
22468;SDS011;11401;50.792;4.352;2023-04-10T03:32:25;5.63;;;5.07;;
22468;SDS011;11401;50.792;4.352;2023-04-10T03:34:56;5.20;;;4.70;;
22468;SDS011;11401;50.792;4.352;2023-04-10T03:37:24;4.80;;;4.30;;
22468;SDS011;11401;50.792;4.352;2023-04-10T03:39:53;5.20;;;4.72;;
22468;SDS011;11401;50.792;4.352;2023-04-10T03:42:20;6.38;;;4.78;;
22468;SDS011;11401;50.792;4.352;2023-04-10T03:44:47;5.20;;;4.55;;
22468;SDS011;11401;50.792;4.352;2023-04-10T03:47:14;6.03;;;4.90;;
22468;SDS011;11401;50.792;4.352;2023-04-10T03:49:47;6.50;;;4.95;;
22468;SDS011;11401;50.792;4.352;2023-04-10T03:52:14;5.15;;;4.65;;
22468;SDS011;11401;50.792;4.352;2023-04-10T03:54:41;6.43;;;4.68;;
22468;SDS011;11401;50.792;4.352;2023-04-10T03:57:20;5.95;;;4.75;;
22468;SDS011;11401;50.792;4.352;2023-04-10T03:59:48;5.88;;;5.10;;
22468;SDS011;11401;50.792;4.352;2023-04-10T04:02:17;5.55;;;4.97;;
22468;SDS011;11401;50.792;4.352;2023-04-10T04:04:44;4.93;;;4.28;;
22468;SDS011;11401;50.792;4.352;2023-04-10T04:07:19;5.32;;;4.82;;
22468;SDS011;11401;50.792;4.352;2023-04-10T04:10:18;4.72;;;4.28;;
22468;SDS011;11401;50.792;4.352;2023-04-10T04:12:59;5.50;;;4.93;;
22468;SDS011;11401;50.792;4.352;2023-04-10T04:15:46;5.85;;;5.32;;
22468;SDS011;11401;50.792;4.352;2023-04-10T04:18:33;4.40;;;4.00;;
22468;SDS011;11401;50.792;4.352;2023-04-10T04:21:20;6.35;;;4.63;;
22468;SDS011;11401;50.792;4.352;2023-04-10T04:24:05;5.05;;;4.47;;
22468;SDS011;11401;50.792;4.352;2023-04-10T04:26:59;4.40;;;4.05;;
22468;SDS011;11401;50.792;4.352;2023-04-10T04:29:48;4.82;;;4.43;;
22468;SDS011;11401;50.792;4.352;2023-04-10T04:32:22;5.88;;;5.10;;
22468;SDS011;11401;50.792;4.352;2023-04-10T04:35:11;6.15;;;4.95;;
22468;SDS011;11401;50.792;4.352;2023-04-10T04:38:04;4.82;;;4.38;;
22468;SDS011;11401;50.792;4.352;2023-04-10T04:40:44;5.07;;;4.38;;
22468;SDS011;11401;50.792;4.352;2023-04-10T04:43:34;4.82;;;4.43;;
22468;SDS011;11401;50.792;4.352;2023-04-10T04:46:16;5.18;;;4.68;;
22468;SDS011;11401;50.792;4.352;2023-04-10T04:49:09;5.18;;;4.75;;
22468;SDS011;11401;50.792;4.352;2023-04-10T04:51:45;4.80;;;4.40;;
22468;SDS011;11401;50.792;4.352;2023-04-10T04:54:44;5.15;;;4.38;;
22468;SDS011;11401;50.792;4.352;2023-04-10T04:57:20;5.97;;;4.88;;
22468;SDS011;11401;50.792;4.352;2023-04-10T05:00:05;5.10;;;4.60;;
22468;SDS011;11401;50.792;4.352;2023-04-10T05:02:52;5.05;;;4.63;;
22468;SDS011;11401;50.792;4.352;2023-04-10T05:05:36;5.22;;;4.72;;
22468;SDS011;11401;50.792;4.352;2023-04-10T05:08:23;5.22;;;4.72;;
22468;SDS011;11401;50.792;4.352;2023-04-10T05:10:55;5.32;;;4.82;;
22468;SDS011;11401;50.792;4.352;2023-04-10T05:13:41;7.28;;;4.82;;
22468;SDS011;11401;50.792;4.352;2023-04-10T05:16:20;6.30;;;4.85;;
22468;SDS011;11401;50.792;4.352;2023-04-10T05:19:09;5.65;;;4.65;;
22468;SDS011;11401;50.792;4.352;2023-04-10T05:21:55;5.50;;;5.00;;
22468;SDS011;11401;50.792;4.352;2023-04-10T05:24:22;4.55;;;4.15;;
22468;SDS011;11401;50.792;4.352;2023-04-10T05:27:12;5.30;;;4.80;;
22468;SDS011;11401;50.792;4.352;2023-04-10T05:29:57;4.80;;;4.30;;
22468;SDS011;11401;50.792;4.352;2023-04-10T05:32:36;4.80;;;4.40;;
22468;SDS011;11401;50.792;4.352;2023-04-10T05:35:22;5.10;;;4.60;;
22468;SDS011;11401;50.792;4.352;2023-04-10T05:37:56;5.13;;;4.63;;
22468;SDS011;11401;50.792;4.352;2023-04-10T05:40:43;5.38;;;4.78;;
22468;SDS011;11401;50.792;4.352;2023-04-10T05:43:29;5.40;;;4.88;;
22468;SDS011;11401;50.792;4.352;2023-04-10T05:46:08;5.20;;;4.68;;
22468;SDS011;11401;50.792;4.352;2023-04-10T05:48:50;4.72;;;4.25;;
22468;SDS011;11401;50.792;4.352;2023-04-10T05:51:30;5.47;;;4.97;;
22468;SDS011;11401;50.792;4.352;2023-04-10T05:54:16;5.15;;;4.68;;
22468;SDS011;11401;50.792;4.352;2023-04-10T05:57:12;5.20;;;4.53;;
22468;SDS011;11401;50.792;4.352;2023-04-10T05:59:51;5.47;;;4.95;;
22468;SDS011;11401;50.792;4.352;2023-04-10T06:02:37;5.25;;;4.78;;
22468;SDS011;11401;50.792;4.352;2023-04-10T06:05:07;5.40;;;4.90;;
22468;SDS011;11401;50.792;4.352;2023-04-10T06:07:36;5.55;;;4.95;;
22468;SDS011;11401;50.792;4.352;2023-04-10T06:10:03;7.57;;;5.35;;
22468;SDS011;11401;50.792;4.352;2023-04-10T06:12:34;10.98;;;5.28;;
22468;SDS011;11401;50.792;4.352;2023-04-10T06:15:03;6.40;;;4.95;;
22468;SDS011;11401;50.792;4.352;2023-04-10T06:17:33;7.15;;;6.13;;
22468;SDS011;11401;50.792;4.352;2023-04-10T06:20:04;8.57;;;4.80;;
22468;SDS011;11401;50.792;4.352;2023-04-10T06:22:32;5.70;;;5.20;;
22468;SDS011;11401;50.792;4.352;2023-04-10T06:24:59;6.35;;;5.30;;
22468;SDS011;11401;50.792;4.352;2023-04-10T06:27:27;6.32;;;5.53;;
22468;SDS011;11401;50.792;4.352;2023-04-10T06:29:55;6.03;;;5.25;;
22468;SDS011;11401;50.792;4.352;2023-04-10T06:32:22;14.55;;;6.30;;
22468;SDS011;11401;50.792;4.352;2023-04-10T06:34:49;10.15;;;5.20;;
22468;SDS011;11401;50.792;4.352;2023-04-10T06:37:16;6.13;;;5.53;;
22468;SDS011;11401;50.792;4.352;2023-04-10T06:39:44;6.30;;;5.68;;
22468;SDS011;11401;50.792;4.352;2023-04-10T06:42:11;6.65;;;5.45;;
22468;SDS011;11401;50.792;4.352;2023-04-10T06:44:52;6.43;;;5.32;;
22468;SDS011;11401;50.792;4.352;2023-04-10T06:47:19;6.80;;;5.38;;
22468;SDS011;11401;50.792;4.352;2023-04-10T06:49:46;5.82;;;5.18;;
22468;SDS011;11401;50.792;4.352;2023-04-10T06:52:13;14.25;;;5.65;;
22468;SDS011;11401;50.792;4.352;2023-04-10T06:54:40;4.93;;;4.45;;
22468;SDS011;11401;50.792;4.352;2023-04-10T06:57:07;4.47;;;4.03;;
22468;SDS011;11401;50.792;4.352;2023-04-10T06:59:34;6.47;;;5.03;;
22468;SDS011;11401;50.792;4.352;2023-04-10T07:02:02;8.02;;;5.05;;
22468;SDS011;11401;50.792;4.352;2023-04-10T07:04:30;5.43;;;4.80;;
22468;SDS011;11401;50.792;4.352;2023-04-10T07:06:58;6.68;;;4.90;;
22468;SDS011;11401;50.792;4.352;2023-04-10T07:09:24;5.55;;;4.00;;
22468;SDS011;11401;50.792;4.352;2023-04-10T07:11:52;5.22;;;4.72;;
22468;SDS011;11401;50.792;4.352;2023-04-10T07:14:19;5.10;;;4.55;;
22468;SDS011;11401;50.792;4.352;2023-04-10T07:16:47;5.78;;;4.68;;
22468;SDS011;11401;50.792;4.352;2023-04-10T07:19:14;4.93;;;4.53;;
22468;SDS011;11401;50.792;4.352;2023-04-10T07:21:41;4.30;;;3.90;;
22468;SDS011;11401;50.792;4.352;2023-04-10T07:24:09;6.00;;;4.55;;
22468;SDS011;11401;50.792;4.352;2023-04-10T07:26:36;6.20;;;4.70;;
22468;SDS011;11401;50.792;4.352;2023-04-10T07:29:03;4.80;;;4.40;;
22468;SDS011;11401;50.792;4.352;2023-04-10T07:31:30;4.63;;;4.20;;
22468;SDS011;11401;50.792;4.352;2023-04-10T07:33:57;4.90;;;4.40;;
22468;SDS011;11401;50.792;4.352;2023-04-10T07:36:24;6.68;;;4.68;;
22468;SDS011;11401;50.792;4.352;2023-04-10T07:38:52;6.05;;;4.68;;
22468;SDS011;11401;50.792;4.352;2023-04-10T07:41:19;5.78;;;5.22;;
22468;SDS011;11401;50.792;4.352;2023-04-10T07:43:47;9.52;;;4.85;;
22468;SDS011;11401;50.792;4.352;2023-04-10T07:46:14;6.68;;;4.18;;
22468;SDS011;11401;50.792;4.352;2023-04-10T07:48:42;5.43;;;4.93;;
22468;SDS011;11401;50.792;4.352;2023-04-10T07:51:09;7.05;;;4.40;;
22468;SDS011;11401;50.792;4.352;2023-04-10T07:53:37;7.03;;;5.47;;
22468;SDS011;11401;50.792;4.352;2023-04-10T07:56:04;6.15;;;4.82;;
22468;SDS011;11401;50.792;4.352;2023-04-10T07:58:31;5.20;;;3.83;;
22468;SDS011;11401;50.792;4.352;2023-04-10T08:00:59;6.18;;;5.57;;
22468;SDS011;11401;50.792;4.352;2023-04-10T08:03:26;5.50;;;4.65;;
22468;SDS011;11401;50.792;4.352;2023-04-10T08:05:53;9.23;;;5.63;;
22468;SDS011;11401;50.792;4.352;2023-04-10T08:08:20;6.07;;;4.70;;
22468;SDS011;11401;50.792;4.352;2023-04-10T08:10:47;6.13;;;5.53;;
22468;SDS011;11401;50.792;4.352;2023-04-10T08:13:15;7.43;;;5.82;;
22468;SDS011;11401;50.792;4.352;2023-04-10T08:15:42;6.10;;;5.00;;
22468;SDS011;11401;50.792;4.352;2023-04-10T08:18:09;6.63;;;5.35;;
22468;SDS011;11401;50.792;4.352;2023-04-10T08:20:36;8.43;;;5.53;;
22468;SDS011;11401;50.792;4.352;2023-04-10T08:23:03;4.78;;;4.38;;
22468;SDS011;11401;50.792;4.352;2023-04-10T08:25:45;16.38;;;6.03;;
22468;SDS011;11401;50.792;4.352;2023-04-10T08:28:12;23.80;;;5.95;;
22468;SDS011;11401;50.792;4.352;2023-04-10T08:30:39;9.88;;;5.63;;
22468;SDS011;11401;50.792;4.352;2023-04-10T08:33:06;12.38;;;5.88;;
22468;SDS011;11401;50.792;4.352;2023-04-10T08:35:33;9.75;;;6.18;;
22468;SDS011;11401;50.792;4.352;2023-04-10T08:38:00;12.10;;;5.78;;
22468;SDS011;11401;50.792;4.352;2023-04-10T08:40:39;9.13;;;6.25;;
22468;SDS011;11401;50.792;4.352;2023-04-10T08:43:06;11.32;;;6.07;;
22468;SDS011;11401;50.792;4.352;2023-04-10T08:45:33;7.60;;;5.45;;
22468;SDS011;11401;50.792;4.352;2023-04-10T08:48:01;11.95;;;5.78;;
22468;SDS011;11401;50.792;4.352;2023-04-10T08:50:31;11.85;;;6.15;;
22468;SDS011;11401;50.792;4.352;2023-04-10T08:53:04;8.50;;;5.55;;
22468;SDS011;11401;50.792;4.352;2023-04-10T08:55:37;8.23;;;5.05;;
22468;SDS011;11401;50.792;4.352;2023-04-10T08:58:05;10.20;;;5.78;;
22468;SDS011;11401;50.792;4.352;2023-04-10T09:00:34;11.05;;;5.78;;
22468;SDS011;11401;50.792;4.352;2023-04-10T09:03:10;6.55;;;5.10;;
22468;SDS011;11401;50.792;4.352;2023-04-10T09:05:39;9.10;;;5.63;;
22468;SDS011;11401;50.792;4.352;2023-04-10T09:08:06;10.57;;;5.60;;
22468;SDS011;11401;50.792;4.352;2023-04-10T09:10:34;8.43;;;4.80;;
22468;SDS011;11401;50.792;4.352;2023-04-10T09:13:01;7.05;;;5.20;;
22468;SDS011;11401;50.792;4.352;2023-04-10T09:15:29;6.03;;;4.75;;
22468;SDS011;11401;50.792;4.352;2023-04-10T09:17:57;8.88;;;5.75;;
22468;SDS011;11401;50.792;4.352;2023-04-10T09:20:29;7.63;;;5.28;;
22468;SDS011;11401;50.792;4.352;2023-04-10T09:22:57;6.22;;;5.50;;
22468;SDS011;11401;50.792;4.352;2023-04-10T09:25:28;5.30;;;4.80;;
22468;SDS011;11401;50.792;4.352;2023-04-10T09:28:03;8.68;;;4.75;;
22468;SDS011;11401;50.792;4.352;2023-04-10T09:30:39;5.10;;;4.28;;
22468;SDS011;11401;50.792;4.352;2023-04-10T09:33:26;7.05;;;4.60;;
22468;SDS011;11401;50.792;4.352;2023-04-10T09:35:53;6.93;;;4.43;;
22468;SDS011;11401;50.792;4.352;2023-04-10T09:38:25;5.25;;;4.75;;
22468;SDS011;11401;50.792;4.352;2023-04-10T09:40:53;5.32;;;4.78;;
22468;SDS011;11401;50.792;4.352;2023-04-10T09:43:33;5.60;;;4.40;;
22468;SDS011;11401;50.792;4.352;2023-04-10T09:46:00;6.97;;;4.63;;
22468;SDS011;11401;50.792;4.352;2023-04-10T09:48:27;6.35;;;5.28;;
22468;SDS011;11401;50.792;4.352;2023-04-10T09:50:54;9.60;;;5.07;;
22468;SDS011;11401;50.792;4.352;2023-04-10T09:53:21;5.40;;;4.72;;
22468;SDS011;11401;50.792;4.352;2023-04-10T09:55:49;7.32;;;4.35;;
22468;SDS011;11401;50.792;4.352;2023-04-10T09:58:16;5.13;;;4.63;;
22468;SDS011;11401;50.792;4.352;2023-04-10T10:00:47;6.95;;;4.40;;
22468;SDS011;11401;50.792;4.352;2023-04-10T10:03:16;6.97;;;4.00;;
22468;SDS011;11401;50.792;4.352;2023-04-10T10:05:46;5.70;;;4.32;;
22468;SDS011;11401;50.792;4.352;2023-04-10T10:08:17;7.60;;;4.65;;
22468;SDS011;11401;50.792;4.352;2023-04-10T10:10:49;5.20;;;4.70;;
22468;SDS011;11401;50.792;4.352;2023-04-10T10:13:21;5.47;;;4.68;;
22468;SDS011;11401;50.792;4.352;2023-04-10T10:18:33;6.53;;;4.45;;
22468;SDS011;11401;50.792;4.352;2023-04-10T10:21:19;6.63;;;4.10;;
22468;SDS011;11401;50.792;4.352;2023-04-10T10:23:46;4.28;;;3.80;;
22468;SDS011;11401;50.792;4.352;2023-04-10T10:26:19;7.20;;;4.18;;
22468;SDS011;11401;50.792;4.352;2023-04-10T10:28:50;4.65;;;3.65;;
22468;SDS011;11401;50.792;4.352;2023-04-10T10:31:21;5.13;;;3.72;;
22468;SDS011;11401;50.792;4.352;2023-04-10T10:33:52;8.57;;;3.92;;
22468;SDS011;11401;50.792;4.352;2023-04-10T10:36:20;5.75;;;3.95;;
22468;SDS011;11401;50.792;4.352;2023-04-10T10:42:00;3.42;;;3.13;;
22468;SDS011;11401;50.792;4.352;2023-04-10T10:44:42;6.65;;;3.50;;
22468;SDS011;11401;50.792;4.352;2023-04-10T10:47:16;4.53;;;3.22;;
22468;SDS011;11401;50.792;4.352;2023-04-10T10:49:53;3.42;;;3.13;;
22468;SDS011;11401;50.792;4.352;2023-04-10T10:57:54;6.45;;;3.25;;
22468;SDS011;11401;50.792;4.352;2023-04-10T11:00:24;3.38;;;3.10;;
22468;SDS011;11401;50.792;4.352;2023-04-10T11:03:25;3.78;;;3.17;;
22468;SDS011;11401;50.792;4.352;2023-04-10T11:05:56;4.78;;;3.42;;
22468;SDS011;11401;50.792;4.352;2023-04-10T11:11:16;3.58;;;3.08;;
22468;SDS011;11401;50.792;4.352;2023-04-10T11:19:05;6.10;;;3.58;;
22468;SDS011;11401;50.792;4.352;2023-04-10T11:27:39;6.07;;;3.58;;
22468;SDS011;11401;50.792;4.352;2023-04-10T11:30:26;3.83;;;3.20;;
22468;SDS011;11401;50.792;4.352;2023-04-10T11:32:58;4.05;;;2.80;;
22468;SDS011;11401;50.792;4.352;2023-04-10T11:35:29;3.65;;;3.28;;
22468;SDS011;11401;50.792;4.352;2023-04-10T11:38:13;2.88;;;2.58;;
22468;SDS011;11401;50.792;4.352;2023-04-10T11:40:52;3.35;;;3.05;;
22468;SDS011;11401;50.792;4.352;2023-04-10T11:43:20;3.63;;;3.08;;
22468;SDS011;11401;50.792;4.352;2023-04-10T11:45:47;4.32;;;2.80;;
22468;SDS011;11401;50.792;4.352;2023-04-10T11:48:14;5.72;;;3.60;;
22468;SDS011;11401;50.792;4.352;2023-04-10T11:50:42;3.60;;;2.58;;
22468;SDS011;11401;50.792;4.352;2023-04-10T11:53:18;3.95;;;2.60;;
22468;SDS011;11401;50.792;4.352;2023-04-10T11:55:47;2.88;;;2.67;;
22468;SDS011;11401;50.792;4.352;2023-04-10T11:58:24;3.65;;;3.03;;
22468;SDS011;11401;50.792;4.352;2023-04-10T12:00:59;2.75;;;2.55;;
22468;SDS011;11401;50.792;4.352;2023-04-10T12:03:30;3.03;;;2.53;;
22468;SDS011;11401;50.792;4.352;2023-04-10T12:06:06;3.15;;;2.85;;
22468;SDS011;11401;50.792;4.352;2023-04-10T12:08:36;4.13;;;2.80;;
22468;SDS011;11401;50.792;4.352;2023-04-10T12:11:08;3.15;;;2.85;;
22468;SDS011;11401;50.792;4.352;2023-04-10T12:13:36;2.65;;;2.35;;
22468;SDS011;11401;50.792;4.352;2023-04-10T12:16:05;2.67;;;2.47;;
22468;SDS011;11401;50.792;4.352;2023-04-10T12:18:33;5.22;;;3.45;;
22468;SDS011;11401;50.792;4.352;2023-04-10T12:21:01;4.32;;;2.50;;
22468;SDS011;11401;50.792;4.352;2023-04-10T12:23:32;19.85;;;5.05;;
22468;SDS011;11401;50.792;4.352;2023-04-10T12:26:05;15.52;;;4.18;;
22468;SDS011;11401;50.792;4.352;2023-04-10T12:28:39;13.90;;;4.50;;
22468;SDS011;11401;50.792;4.352;2023-04-10T12:31:07;12.63;;;3.83;;
22468;SDS011;11401;50.792;4.352;2023-04-10T12:33:34;10.80;;;4.57;;
22468;SDS011;11401;50.792;4.352;2023-04-10T12:36:01;10.32;;;3.95;;
22468;SDS011;11401;50.792;4.352;2023-04-10T12:41:03;8.90;;;3.22;;
22468;SDS011;11401;50.792;4.352;2023-04-10T12:43:31;4.60;;;3.10;;
22468;SDS011;11401;50.792;4.352;2023-04-10T12:46:00;6.40;;;3.13;;
22468;SDS011;11401;50.792;4.352;2023-04-10T12:48:28;10.40;;;3.72;;
22468;SDS011;11401;50.792;4.352;2023-04-10T12:50:55;9.32;;;3.40;;
22468;SDS011;11401;50.792;4.352;2023-04-10T12:53:22;6.88;;;3.75;;
22468;SDS011;11401;50.792;4.352;2023-04-10T12:55:57;6.03;;;3.03;;
22468;SDS011;11401;50.792;4.352;2023-04-10T12:58:24;9.55;;;3.38;;
22468;SDS011;11401;50.792;4.352;2023-04-10T13:00:57;7.55;;;3.70;;
22468;SDS011;11401;50.792;4.352;2023-04-10T13:03:29;6.78;;;3.10;;
22468;SDS011;11401;50.792;4.352;2023-04-10T13:05:57;9.27;;;3.90;;
22468;SDS011;11401;50.792;4.352;2023-04-10T13:08:25;8.02;;;3.20;;
22468;SDS011;11401;50.792;4.352;2023-04-10T13:10:53;9.45;;;3.53;;
22468;SDS011;11401;50.792;4.352;2023-04-10T13:13:27;6.93;;;3.40;;
22468;SDS011;11401;50.792;4.352;2023-04-10T13:15:59;7.90;;;3.38;;
22468;SDS011;11401;50.792;4.352;2023-04-10T13:18:26;4.18;;;3.20;;
22468;SDS011;11401;50.792;4.352;2023-04-10T13:20:54;2.83;;;2.63;;
22468;SDS011;11401;50.792;4.352;2023-04-10T13:23:21;3.63;;;2.45;;
22468;SDS011;11401;50.792;4.352;2023-04-10T13:25:48;4.90;;;3.03;;
22468;SDS011;11401;50.792;4.352;2023-04-10T13:28:16;5.75;;;2.67;;
22468;SDS011;11401;50.792;4.352;2023-04-10T13:30:44;6.07;;;3.15;;
22468;SDS011;11401;50.792;4.352;2023-04-10T13:33:11;7.85;;;3.28;;
22468;SDS011;11401;50.792;4.352;2023-04-10T13:35:38;3.15;;;2.85;;
22468;SDS011;11401;50.792;4.352;2023-04-10T13:38:05;2.85;;;2.53;;
22468;SDS011;11401;50.792;4.352;2023-04-10T13:40:34;7.85;;;2.60;;
22468;SDS011;11401;50.792;4.352;2023-04-10T13:43:01;3.78;;;2.70;;
22468;SDS011;11401;50.792;4.352;2023-04-10T13:45:28;6.63;;;2.88;;
22468;SDS011;11401;50.792;4.352;2023-04-10T13:47:55;3.30;;;3.00;;
22468;SDS011;11401;50.792;4.352;2023-04-10T13:50:22;3.83;;;2.60;;
22468;SDS011;11401;50.792;4.352;2023-04-10T13:52:49;6.03;;;2.20;;
22468;SDS011;11401;50.792;4.352;2023-04-10T13:55:19;3.50;;;2.70;;
22468;SDS011;11401;50.792;4.352;2023-04-10T13:57:46;4.63;;;2.95;;
22468;SDS011;11401;50.792;4.352;2023-04-10T14:00:13;4.20;;;3.10;;
22468;SDS011;11401;50.792;4.352;2023-04-10T14:02:40;3.58;;;2.60;;
22468;SDS011;11401;50.792;4.352;2023-04-10T14:05:08;2.72;;;2.47;;
22468;SDS011;11401;50.792;4.352;2023-04-10T14:07:38;2.78;;;2.40;;
22468;SDS011;11401;50.792;4.352;2023-04-10T14:10:05;2.33;;;2.13;;
22468;SDS011;11401;50.792;4.352;2023-04-10T14:12:33;4.00;;;2.58;;
22468;SDS011;11401;50.792;4.352;2023-04-10T14:15:03;3.00;;;2.78;;
22468;SDS011;11401;50.792;4.352;2023-04-10T14:17:30;3.10;;;2.55;;
22468;SDS011;11401;50.792;4.352;2023-04-10T14:19:57;3.80;;;2.58;;
22468;SDS011;11401;50.792;4.352;2023-04-10T14:22:24;10.65;;;7.97;;
22468;SDS011;11401;50.792;4.352;2023-04-10T14:24:51;18.00;;;12.25;;
22468;SDS011;11401;50.792;4.352;2023-04-10T14:27:34;20.80;;;14.48;;
22468;SDS011;11401;50.792;4.352;2023-04-10T14:30:01;20.85;;;14.50;;
22468;SDS011;11401;50.792;4.352;2023-04-10T14:32:29;16.50;;;12.20;;
22468;SDS011;11401;50.792;4.352;2023-04-10T14:34:56;9.77;;;7.97;;
22468;SDS011;11401;50.792;4.352;2023-04-10T14:37:23;14.68;;;9.07;;
22468;SDS011;11401;50.792;4.352;2023-04-10T14:39:50;9.55;;;7.82;;
22468;SDS011;11401;50.792;4.352;2023-04-10T14:42:17;11.82;;;8.57;;
22468;SDS011;11401;50.792;4.352;2023-04-10T14:44:44;10.75;;;9.25;;
22468;SDS011;11401;50.792;4.352;2023-04-10T14:47:11;10.75;;;8.30;;
22468;SDS011;11401;50.792;4.352;2023-04-10T14:49:39;9.82;;;8.05;;
22468;SDS011;11401;50.792;4.352;2023-04-10T14:52:07;9.40;;;7.55;;
22468;SDS011;11401;50.792;4.352;2023-04-10T14:54:34;8.77;;;7.47;;
22468;SDS011;11401;50.792;4.352;2023-04-10T14:57:01;7.63;;;6.43;;
22468;SDS011;11401;50.792;4.352;2023-04-10T14:59:29;7.75;;;6.60;;
22468;SDS011;11401;50.792;4.352;2023-04-10T15:01:57;8.73;;;6.43;;
22468;SDS011;11401;50.792;4.352;2023-04-10T15:04:24;10.10;;;6.60;;
22468;SDS011;11401;50.792;4.352;2023-04-10T15:06:51;9.05;;;5.85;;
22468;SDS011;11401;50.792;4.352;2023-04-10T15:09:18;5.70;;;4.90;;
22468;SDS011;11401;50.792;4.352;2023-04-10T15:11:47;5.65;;;5.00;;
22468;SDS011;11401;50.792;4.352;2023-04-10T15:14:14;4.85;;;4.30;;
22468;SDS011;11401;50.792;4.352;2023-04-10T15:16:41;7.10;;;5.80;;
22468;SDS011;11401;50.792;4.352;2023-04-10T15:19:08;5.20;;;4.10;;
22468;SDS011;11401;50.792;4.352;2023-04-10T15:21:36;7.57;;;5.63;;
22468;SDS011;11401;50.792;4.352;2023-04-10T15:24:03;6.30;;;4.63;;
22468;SDS011;11401;50.792;4.352;2023-04-10T15:26:30;5.55;;;5.03;;
22468;SDS011;11401;50.792;4.352;2023-04-10T15:28:57;5.07;;;4.57;;
22468;SDS011;11401;50.792;4.352;2023-04-10T15:31:24;4.70;;;4.22;;
22468;SDS011;11401;50.792;4.352;2023-04-10T15:33:51;5.43;;;4.95;;
22468;SDS011;11401;50.792;4.352;2023-04-10T15:36:18;9.10;;;5.40;;
22468;SDS011;11401;50.792;4.352;2023-04-10T15:38:45;5.75;;;4.60;;
22468;SDS011;11401;50.792;4.352;2023-04-10T15:41:15;5.88;;;4.57;;
22468;SDS011;11401;50.792;4.352;2023-04-10T15:43:42;5.10;;;4.60;;